sensor_id;sensor_type;location;lat;lon;timestamp;P1;durP1;ratioP1;P2;durP2;ratioP2
76127;SDS011;64873;50.102;14.434;2024-02-21T00:01:52;12.38;;;3.00;;
76127;SDS011;64873;50.102;14.434;2024-02-21T00:04:18;9.93;;;2.65;;
76127;SDS011;64873;50.102;14.434;2024-02-21T00:06:43;10.90;;;2.45;;
76127;SDS011;64873;50.102;14.434;2024-02-21T00:09:08;8.45;;;2.35;;
76127;SDS011;64873;50.102;14.434;2024-02-21T00:11:34;11.55;;;2.95;;
76127;SDS011;64873;50.102;14.434;2024-02-21T00:14:00;7.82;;;1.98;;
76127;SDS011;64873;50.102;14.434;2024-02-21T00:16:25;11.75;;;2.47;;
76127;SDS011;64873;50.102;14.434;2024-02-21T00:18:51;9.63;;;2.97;;
76127;SDS011;64873;50.102;14.434;2024-02-21T00:21:16;11.02;;;2.50;;
76127;SDS011;64873;50.102;14.434;2024-02-21T00:23:43;10.73;;;2.25;;
76127;SDS011;64873;50.102;14.434;2024-02-21T00:26:11;10.88;;;2.70;;
76127;SDS011;64873;50.102;14.434;2024-02-21T00:28:37;7.25;;;2.30;;
76127;SDS011;64873;50.102;14.434;2024-02-21T00:31:03;10.75;;;2.28;;
76127;SDS011;64873;50.102;14.434;2024-02-21T00:33:28;5.93;;;2.20;;
76127;SDS011;64873;50.102;14.434;2024-02-21T00:35:54;9.27;;;2.60;;
76127;SDS011;64873;50.102;14.434;2024-02-21T00:38:19;9.15;;;2.35;;
76127;SDS011;64873;50.102;14.434;2024-02-21T00:40:44;9.77;;;2.55;;
76127;SDS011;64873;50.102;14.434;2024-02-21T00:43:10;7.47;;;2.00;;
76127;SDS011;64873;50.102;14.434;2024-02-21T00:45:35;8.98;;;2.50;;
76127;SDS011;64873;50.102;14.434;2024-02-21T00:48:00;9.85;;;2.72;;
76127;SDS011;64873;50.102;14.434;2024-02-21T00:50:26;7.93;;;2.13;;
76127;SDS011;64873;50.102;14.434;2024-02-21T00:52:51;9.75;;;2.90;;
76127;SDS011;64873;50.102;14.434;2024-02-21T00:55:16;8.57;;;2.63;;
76127;SDS011;64873;50.102;14.434;2024-02-21T00:57:42;10.23;;;2.70;;
76127;SDS011;64873;50.102;14.434;2024-02-21T01:00:07;7.63;;;2.60;;
76127;SDS011;64873;50.102;14.434;2024-02-21T01:02:33;8.85;;;2.50;;
76127;SDS011;64873;50.102;14.434;2024-02-21T01:04:59;7.50;;;2.33;;
76127;SDS011;64873;50.102;14.434;2024-02-21T01:07:25;9.13;;;2.20;;
76127;SDS011;64873;50.102;14.434;2024-02-21T01:09:51;11.05;;;2.47;;
76127;SDS011;64873;50.102;14.434;2024-02-21T01:12:16;8.25;;;2.88;;
76127;SDS011;64873;50.102;14.434;2024-02-21T01:14:42;6.93;;;2.70;;
76127;SDS011;64873;50.102;14.434;2024-02-21T01:17:07;11.23;;;2.42;;
76127;SDS011;64873;50.102;14.434;2024-02-21T01:19:33;11.43;;;2.83;;
76127;SDS011;64873;50.102;14.434;2024-02-21T01:21:58;9.70;;;2.67;;
76127;SDS011;64873;50.102;14.434;2024-02-21T01:24:24;9.60;;;2.72;;
76127;SDS011;64873;50.102;14.434;2024-02-21T01:26:49;7.45;;;2.70;;
76127;SDS011;64873;50.102;14.434;2024-02-21T01:29:15;10.85;;;2.80;;
76127;SDS011;64873;50.102;14.434;2024-02-21T01:31:40;11.43;;;2.60;;
76127;SDS011;64873;50.102;14.434;2024-02-21T01:34:05;7.70;;;2.25;;
76127;SDS011;64873;50.102;14.434;2024-02-21T01:36:31;14.38;;;3.45;;
76127;SDS011;64873;50.102;14.434;2024-02-21T01:38:56;10.02;;;2.72;;
76127;SDS011;64873;50.102;14.434;2024-02-21T01:41:21;11.00;;;2.40;;
76127;SDS011;64873;50.102;14.434;2024-02-21T01:43:47;9.82;;;2.58;;
76127;SDS011;64873;50.102;14.434;2024-02-21T01:46:12;9.65;;;2.72;;
76127;SDS011;64873;50.102;14.434;2024-02-21T01:48:38;11.20;;;2.65;;
76127;SDS011;64873;50.102;14.434;2024-02-21T01:51:04;15.48;;;2.72;;
76127;SDS011;64873;50.102;14.434;2024-02-21T01:53:30;10.13;;;2.42;;
76127;SDS011;64873;50.102;14.434;2024-02-21T01:56:00;9.40;;;2.05;;
76127;SDS011;64873;50.102;14.434;2024-02-21T01:58:26;6.20;;;2.17;;
76127;SDS011;64873;50.102;14.434;2024-02-21T02:00:54;20.98;;;2.60;;
76127;SDS011;64873;50.102;14.434;2024-02-21T02:03:22;9.95;;;2.75;;
76127;SDS011;64873;50.102;14.434;2024-02-21T02:05:48;8.35;;;2.13;;
76127;SDS011;64873;50.102;14.434;2024-02-21T02:08:14;13.20;;;3.33;;
76127;SDS011;64873;50.102;14.434;2024-02-21T02:10:49;10.98;;;2.65;;
76127;SDS011;64873;50.102;14.434;2024-02-21T02:13:14;7.93;;;1.98;;
76127;SDS011;64873;50.102;14.434;2024-02-21T02:15:49;11.02;;;2.42;;
76127;SDS011;64873;50.102;14.434;2024-02-21T02:18:15;10.32;;;2.70;;
76127;SDS011;64873;50.102;14.434;2024-02-21T02:20:42;8.95;;;2.70;;
76127;SDS011;64873;50.102;14.434;2024-02-21T02:25:39;13.13;;;2.90;;
76127;SDS011;64873;50.102;14.434;2024-02-21T02:28:07;10.13;;;2.45;;
76127;SDS011;64873;50.102;14.434;2024-02-21T02:30:33;8.63;;;2.80;;
76127;SDS011;64873;50.102;14.434;2024-02-21T02:33:01;7.53;;;2.55;;
76127;SDS011;64873;50.102;14.434;2024-02-21T02:35:27;7.15;;;2.40;;
76127;SDS011;64873;50.102;14.434;2024-02-21T02:37:52;11.77;;;2.63;;
76127;SDS011;64873;50.102;14.434;2024-02-21T02:40:18;11.35;;;2.30;;
76127;SDS011;64873;50.102;14.434;2024-02-21T02:42:43;9.13;;;2.55;;
76127;SDS011;64873;50.102;14.434;2024-02-21T02:45:09;11.10;;;2.40;;
76127;SDS011;64873;50.102;14.434;2024-02-21T02:47:35;11.18;;;2.25;;
76127;SDS011;64873;50.102;14.434;2024-02-21T02:50:00;11.82;;;3.20;;
76127;SDS011;64873;50.102;14.434;2024-02-21T02:52:26;10.10;;;2.40;;
76127;SDS011;64873;50.102;14.434;2024-02-21T02:54:52;6.53;;;2.28;;
76127;SDS011;64873;50.102;14.434;2024-02-21T02:57:20;12.85;;;3.03;;
76127;SDS011;64873;50.102;14.434;2024-02-21T02:59:49;11.85;;;2.30;;
76127;SDS011;64873;50.102;14.434;2024-02-21T03:02:16;12.57;;;2.70;;
76127;SDS011;64873;50.102;14.434;2024-02-21T03:04:42;6.35;;;2.47;;
76127;SDS011;64873;50.102;14.434;2024-02-21T03:07:07;8.07;;;2.05;;
76127;SDS011;64873;50.102;14.434;2024-02-21T03:09:33;8.98;;;2.47;;
76127;SDS011;64873;50.102;14.434;2024-02-21T03:11:58;6.97;;;2.00;;
76127;SDS011;64873;50.102;14.434;2024-02-21T03:14:30;5.75;;;2.38;;
76127;SDS011;64873;50.102;14.434;2024-02-21T03:16:56;8.80;;;2.80;;
76127;SDS011;64873;50.102;14.434;2024-02-21T03:19:23;11.93;;;2.38;;
76127;SDS011;64873;50.102;14.434;2024-02-21T03:21:51;8.07;;;2.50;;
76127;SDS011;64873;50.102;14.434;2024-02-21T03:24:18;8.35;;;2.53;;
76127;SDS011;64873;50.102;14.434;2024-02-21T03:26:44;15.00;;;2.60;;
76127;SDS011;64873;50.102;14.434;2024-02-21T03:29:11;5.75;;;2.30;;
76127;SDS011;64873;50.102;14.434;2024-02-21T03:31:37;10.48;;;2.50;;
76127;SDS011;64873;50.102;14.434;2024-02-21T03:34:02;9.93;;;2.55;;
76127;SDS011;64873;50.102;14.434;2024-02-21T03:36:28;7.25;;;2.35;;
76127;SDS011;64873;50.102;14.434;2024-02-21T03:38:54;9.88;;;2.50;;
76127;SDS011;64873;50.102;14.434;2024-02-21T03:41:20;7.68;;;2.47;;
76127;SDS011;64873;50.102;14.434;2024-02-21T03:43:45;11.88;;;3.08;;
76127;SDS011;64873;50.102;14.434;2024-02-21T03:46:11;9.90;;;2.78;;
76127;SDS011;64873;50.102;14.434;2024-02-21T03:48:36;12.60;;;3.13;;
76127;SDS011;64873;50.102;14.434;2024-02-21T03:51:02;6.05;;;2.20;;
76127;SDS011;64873;50.102;14.434;2024-02-21T03:53:27;7.25;;;2.60;;
76127;SDS011;64873;50.102;14.434;2024-02-21T03:55:53;9.07;;;2.35;;
76127;SDS011;64873;50.102;14.434;2024-02-21T03:58:19;7.78;;;2.35;;
76127;SDS011;64873;50.102;14.434;2024-02-21T04:00:45;8.50;;;2.65;;
76127;SDS011;64873;50.102;14.434;2024-02-21T04:03:10;9.10;;;2.28;;
76127;SDS011;64873;50.102;14.434;2024-02-21T04:05:36;13.27;;;2.70;;
76127;SDS011;64873;50.102;14.434;2024-02-21T04:08:03;7.90;;;2.28;;
76127;SDS011;64873;50.102;14.434;2024-02-21T04:10:30;10.07;;;2.47;;
76127;SDS011;64873;50.102;14.434;2024-02-21T04:12:55;8.88;;;2.65;;
76127;SDS011;64873;50.102;14.434;2024-02-21T04:15:21;7.13;;;2.65;;
76127;SDS011;64873;50.102;14.434;2024-02-21T04:17:46;10.40;;;3.30;;
76127;SDS011;64873;50.102;14.434;2024-02-21T04:20:15;7.15;;;2.42;;
76127;SDS011;64873;50.102;14.434;2024-02-21T04:22:44;6.45;;;2.13;;
76127;SDS011;64873;50.102;14.434;2024-02-21T04:25:10;12.65;;;2.97;;
76127;SDS011;64873;50.102;14.434;2024-02-21T04:27:36;10.93;;;3.15;;
76127;SDS011;64873;50.102;14.434;2024-02-21T04:30:02;7.25;;;2.70;;
76127;SDS011;64873;50.102;14.434;2024-02-21T04:32:28;12.18;;;3.53;;
76127;SDS011;64873;50.102;14.434;2024-02-21T04:34:54;6.90;;;2.92;;
76127;SDS011;64873;50.102;14.434;2024-02-21T04:37:19;12.05;;;2.47;;
76127;SDS011;64873;50.102;14.434;2024-02-21T04:39:45;9.52;;;2.80;;
76127;SDS011;64873;50.102;14.434;2024-02-21T04:42:11;10.65;;;2.88;;
76127;SDS011;64873;50.102;14.434;2024-02-21T04:44:36;6.53;;;2.50;;
76127;SDS011;64873;50.102;14.434;2024-02-21T04:47:02;10.25;;;2.47;;
76127;SDS011;64873;50.102;14.434;2024-02-21T04:49:28;11.00;;;2.70;;
76127;SDS011;64873;50.102;14.434;2024-02-21T04:51:54;12.32;;;3.42;;
76127;SDS011;64873;50.102;14.434;2024-02-21T04:54:20;13.10;;;3.60;;
76127;SDS011;64873;50.102;14.434;2024-02-21T04:56:45;9.52;;;2.28;;
76127;SDS011;64873;50.102;14.434;2024-02-21T04:59:10;11.20;;;2.78;;
76127;SDS011;64873;50.102;14.434;2024-02-21T05:01:36;10.40;;;2.72;;
76127;SDS011;64873;50.102;14.434;2024-02-21T05:04:01;12.80;;;2.53;;
76127;SDS011;64873;50.102;14.434;2024-02-21T05:06:27;8.50;;;2.35;;
76127;SDS011;64873;50.102;14.434;2024-02-21T05:08:53;7.88;;;2.13;;
76127;SDS011;64873;50.102;14.434;2024-02-21T05:11:20;12.35;;;3.15;;
76127;SDS011;64873;50.102;14.434;2024-02-21T05:13:48;7.60;;;2.50;;
76127;SDS011;64873;50.102;14.434;2024-02-21T05:16:14;11.38;;;2.45;;
76127;SDS011;64873;50.102;14.434;2024-02-21T05:18:40;12.40;;;2.95;;
76127;SDS011;64873;50.102;14.434;2024-02-21T05:21:05;10.52;;;2.42;;
76127;SDS011;64873;50.102;14.434;2024-02-21T05:23:31;6.55;;;2.67;;
76127;SDS011;64873;50.102;14.434;2024-02-21T05:25:56;11.00;;;2.53;;
76127;SDS011;64873;50.102;14.434;2024-02-21T05:28:22;8.63;;;2.65;;
76127;SDS011;64873;50.102;14.434;2024-02-21T05:30:47;9.43;;;2.53;;
76127;SDS011;64873;50.102;14.434;2024-02-21T05:33:13;14.90;;;3.13;;
76127;SDS011;64873;50.102;14.434;2024-02-21T05:35:46;11.93;;;2.83;;
76127;SDS011;64873;50.102;14.434;2024-02-21T05:38:11;10.15;;;2.70;;
76127;SDS011;64873;50.102;14.434;2024-02-21T05:40:36;8.63;;;2.78;;
76127;SDS011;64873;50.102;14.434;2024-02-21T05:43:02;15.45;;;2.85;;
76127;SDS011;64873;50.102;14.434;2024-02-21T05:45:28;8.55;;;2.50;;
76127;SDS011;64873;50.102;14.434;2024-02-21T05:47:53;11.23;;;3.28;;
76127;SDS011;64873;50.102;14.434;2024-02-21T05:50:18;13.32;;;2.92;;
76127;SDS011;64873;50.102;14.434;2024-02-21T05:52:44;9.13;;;2.90;;
76127;SDS011;64873;50.102;14.434;2024-02-21T05:55:09;10.15;;;2.72;;
76127;SDS011;64873;50.102;14.434;2024-02-21T05:57:35;12.77;;;2.35;;
76127;SDS011;64873;50.102;14.434;2024-02-21T06:00:02;8.98;;;3.33;;
76127;SDS011;64873;50.102;14.434;2024-02-21T06:02:30;8.93;;;2.70;;
76127;SDS011;64873;50.102;14.434;2024-02-21T06:04:55;14.63;;;2.92;;
76127;SDS011;64873;50.102;14.434;2024-02-21T06:07:21;12.00;;;2.72;;
76127;SDS011;64873;50.102;14.434;2024-02-21T06:09:46;12.57;;;2.97;;
76127;SDS011;64873;50.102;14.434;2024-02-21T06:12:11;8.93;;;2.60;;
76127;SDS011;64873;50.102;14.434;2024-02-21T06:14:37;12.18;;;3.13;;
76127;SDS011;64873;50.102;14.434;2024-02-21T06:17:02;7.43;;;2.90;;
76127;SDS011;64873;50.102;14.434;2024-02-21T06:19:28;11.07;;;2.90;;
76127;SDS011;64873;50.102;14.434;2024-02-21T06:21:53;9.48;;;2.85;;
76127;SDS011;64873;50.102;14.434;2024-02-21T06:24:18;12.95;;;3.63;;
76127;SDS011;64873;50.102;14.434;2024-02-21T06:26:44;13.45;;;2.97;;
76127;SDS011;64873;50.102;14.434;2024-02-21T06:29:10;10.48;;;2.75;;
76127;SDS011;64873;50.102;14.434;2024-02-21T06:31:36;8.55;;;2.85;;
76127;SDS011;64873;50.102;14.434;2024-02-21T06:34:01;10.93;;;3.03;;
76127;SDS011;64873;50.102;14.434;2024-02-21T06:36:27;17.83;;;3.58;;
76127;SDS011;64873;50.102;14.434;2024-02-21T06:38:52;11.95;;;3.10;;
76127;SDS011;64873;50.102;14.434;2024-02-21T06:41:18;8.85;;;2.92;;
76127;SDS011;64873;50.102;14.434;2024-02-21T06:43:44;19.67;;;4.05;;
76127;SDS011;64873;50.102;14.434;2024-02-21T06:46:27;8.68;;;3.08;;
76127;SDS011;64873;50.102;14.434;2024-02-21T06:48:57;8.48;;;3.13;;
76127;SDS011;64873;50.102;14.434;2024-02-21T06:51:23;9.02;;;3.25;;
76127;SDS011;64873;50.102;14.434;2024-02-21T06:53:50;8.45;;;2.72;;
76127;SDS011;64873;50.102;14.434;2024-02-21T06:56:15;12.20;;;3.15;;
76127;SDS011;64873;50.102;14.434;2024-02-21T06:58:40;18.05;;;3.78;;
76127;SDS011;64873;50.102;14.434;2024-02-21T07:01:06;13.10;;;3.33;;
76127;SDS011;64873;50.102;14.434;2024-02-21T07:03:32;6.68;;;2.88;;
76127;SDS011;64873;50.102;14.434;2024-02-21T07:05:58;11.13;;;3.00;;
76127;SDS011;64873;50.102;14.434;2024-02-21T07:08:23;10.93;;;2.67;;
76127;SDS011;64873;50.102;14.434;2024-02-21T07:10:49;15.50;;;3.47;;
76127;SDS011;64873;50.102;14.434;2024-02-21T07:13:14;10.45;;;3.60;;
76127;SDS011;64873;50.102;14.434;2024-02-21T07:15:40;8.68;;;3.63;;
76127;SDS011;64873;50.102;14.434;2024-02-21T07:18:06;11.10;;;3.10;;
76127;SDS011;64873;50.102;14.434;2024-02-21T07:20:32;12.55;;;3.42;;
76127;SDS011;64873;50.102;14.434;2024-02-21T07:23:06;12.05;;;3.33;;
76127;SDS011;64873;50.102;14.434;2024-02-21T07:25:31;13.60;;;3.45;;
76127;SDS011;64873;50.102;14.434;2024-02-21T07:27:57;10.38;;;2.90;;
76127;SDS011;64873;50.102;14.434;2024-02-21T07:30:22;10.65;;;3.05;;
76127;SDS011;64873;50.102;14.434;2024-02-21T07:32:50;9.02;;;2.90;;
76127;SDS011;64873;50.102;14.434;2024-02-21T07:35:19;10.98;;;3.63;;
76127;SDS011;64873;50.102;14.434;2024-02-21T07:37:45;12.07;;;2.90;;
76127;SDS011;64873;50.102;14.434;2024-02-21T07:40:13;10.18;;;3.40;;
76127;SDS011;64873;50.102;14.434;2024-02-21T07:42:40;16.05;;;3.42;;
76127;SDS011;64873;50.102;14.434;2024-02-21T07:45:06;11.65;;;3.28;;
76127;SDS011;64873;50.102;14.434;2024-02-21T07:47:32;11.38;;;3.60;;
76127;SDS011;64873;50.102;14.434;2024-02-21T07:49:58;14.88;;;3.25;;
76127;SDS011;64873;50.102;14.434;2024-02-21T07:52:23;18.33;;;3.38;;
76127;SDS011;64873;50.102;14.434;2024-02-21T07:54:50;9.60;;;2.88;;
76127;SDS011;64873;50.102;14.434;2024-02-21T07:57:16;8.15;;;2.85;;
76127;SDS011;64873;50.102;14.434;2024-02-21T07:59:41;9.13;;;3.13;;
76127;SDS011;64873;50.102;14.434;2024-02-21T08:02:07;13.35;;;3.38;;
76127;SDS011;64873;50.102;14.434;2024-02-21T08:04:32;12.75;;;3.55;;
76127;SDS011;64873;50.102;14.434;2024-02-21T08:06:58;10.93;;;3.22;;
76127;SDS011;64873;50.102;14.434;2024-02-21T08:09:29;9.80;;;3.13;;
76127;SDS011;64873;50.102;14.434;2024-02-21T08:11:54;14.98;;;2.97;;
76127;SDS011;64873;50.102;14.434;2024-02-21T08:14:20;10.50;;;3.92;;
76127;SDS011;64873;50.102;14.434;2024-02-21T08:16:46;11.27;;;2.72;;
76127;SDS011;64873;50.102;14.434;2024-02-21T08:19:11;11.25;;;3.65;;
76127;SDS011;64873;50.102;14.434;2024-02-21T08:21:36;12.57;;;3.22;;
76127;SDS011;64873;50.102;14.434;2024-02-21T08:24:02;11.55;;;2.97;;
76127;SDS011;64873;50.102;14.434;2024-02-21T08:26:27;13.15;;;3.05;;
76127;SDS011;64873;50.102;14.434;2024-02-21T08:28:55;14.27;;;2.70;;
76127;SDS011;64873;50.102;14.434;2024-02-21T08:31:23;11.98;;;3.72;;
76127;SDS011;64873;50.102;14.434;2024-02-21T08:33:49;8.25;;;2.97;;
76127;SDS011;64873;50.102;14.434;2024-02-21T08:36:19;14.10;;;3.15;;
76127;SDS011;64873;50.102;14.434;2024-02-21T08:38:45;10.48;;;2.72;;
76127;SDS011;64873;50.102;14.434;2024-02-21T08:41:11;10.82;;;2.72;;
76127;SDS011;64873;50.102;14.434;2024-02-21T08:43:37;11.43;;;3.70;;
76127;SDS011;64873;50.102;14.434;2024-02-21T08:46:02;10.88;;;2.90;;
76127;SDS011;64873;50.102;14.434;2024-02-21T08:48:28;14.77;;;3.20;;
76127;SDS011;64873;50.102;14.434;2024-02-21T08:50:53;10.52;;;3.80;;
76127;SDS011;64873;50.102;14.434;2024-02-21T08:53:19;9.02;;;3.30;;
76127;SDS011;64873;50.102;14.434;2024-02-21T08:55:45;10.73;;;3.58;;
76127;SDS011;64873;50.102;14.434;2024-02-21T08:58:10;17.02;;;3.90;;
76127;SDS011;64873;50.102;14.434;2024-02-21T09:00:36;12.48;;;3.58;;
76127;SDS011;64873;50.102;14.434;2024-02-21T09:03:02;11.15;;;3.55;;
76127;SDS011;64873;50.102;14.434;2024-02-21T09:05:27;9.32;;;3.75;;
76127;SDS011;64873;50.102;14.434;2024-02-21T09:07:53;12.65;;;3.80;;
76127;SDS011;64873;50.102;14.434;2024-02-21T09:10:18;9.88;;;3.80;;
76127;SDS011;64873;50.102;14.434;2024-02-21T09:12:45;14.02;;;3.55;;
76127;SDS011;64873;50.102;14.434;2024-02-21T09:15:10;14.77;;;3.78;;
76127;SDS011;64873;50.102;14.434;2024-02-21T09:17:35;10.43;;;3.47;;
76127;SDS011;64873;50.102;14.434;2024-02-21T09:20:01;15.10;;;4.38;;
76127;SDS011;64873;50.102;14.434;2024-02-21T09:22:28;10.65;;;3.70;;
76127;SDS011;64873;50.102;14.434;2024-02-21T09:24:54;13.55;;;4.03;;
76127;SDS011;64873;50.102;14.434;2024-02-21T09:27:20;12.40;;;3.25;;
76127;SDS011;64873;50.102;14.434;2024-02-21T09:29:45;10.55;;;3.60;;
76127;SDS011;64873;50.102;14.434;2024-02-21T09:32:11;10.27;;;3.42;;
76127;SDS011;64873;50.102;14.434;2024-02-21T09:34:37;12.85;;;3.15;;
76127;SDS011;64873;50.102;14.434;2024-02-21T09:37:02;15.20;;;3.72;;
76127;SDS011;64873;50.102;14.434;2024-02-21T09:39:28;9.18;;;3.40;;
76127;SDS011;64873;50.102;14.434;2024-02-21T09:41:56;12.93;;;3.45;;
76127;SDS011;64873;50.102;14.434;2024-02-21T09:44:29;8.93;;;2.75;;
76127;SDS011;64873;50.102;14.434;2024-02-21T09:47:06;10.90;;;3.35;;
76127;SDS011;64873;50.102;14.434;2024-02-21T09:49:35;14.50;;;3.60;;
76127;SDS011;64873;50.102;14.434;2024-02-21T09:52:03;12.00;;;3.40;;
76127;SDS011;64873;50.102;14.434;2024-02-21T09:54:32;7.47;;;2.53;;
76127;SDS011;64873;50.102;14.434;2024-02-21T09:56:58;13.52;;;3.50;;
76127;SDS011;64873;50.102;14.434;2024-02-21T09:59:24;12.23;;;3.42;;
76127;SDS011;64873;50.102;14.434;2024-02-21T10:01:53;15.10;;;3.00;;
76127;SDS011;64873;50.102;14.434;2024-02-21T10:04:19;11.23;;;3.60;;
76127;SDS011;64873;50.102;14.434;2024-02-21T10:06:45;14.40;;;3.13;;
76127;SDS011;64873;50.102;14.434;2024-02-21T10:11:52;6.35;;;2.80;;
76127;SDS011;64873;50.102;14.434;2024-02-21T10:14:17;11.43;;;2.90;;
76127;SDS011;64873;50.102;14.434;2024-02-21T10:16:43;9.45;;;4.40;;
76127;SDS011;64873;50.102;14.434;2024-02-21T10:19:16;11.20;;;3.30;;
76127;SDS011;64873;50.102;14.434;2024-02-21T10:21:57;11.85;;;3.40;;
76127;SDS011;64873;50.102;14.434;2024-02-21T10:24:36;10.65;;;2.90;;
76127;SDS011;64873;50.102;14.434;2024-02-21T10:27:03;9.65;;;2.25;;
76127;SDS011;64873;50.102;14.434;2024-02-21T10:29:33;8.73;;;2.67;;
76127;SDS011;64873;50.102;14.434;2024-02-21T10:34:34;9.05;;;3.05;;
76127;SDS011;64873;50.102;14.434;2024-02-21T10:37:01;12.27;;;3.53;;
76127;SDS011;64873;50.102;14.434;2024-02-21T10:39:31;10.80;;;3.40;;
76127;SDS011;64873;50.102;14.434;2024-02-21T10:41:59;12.32;;;3.30;;
76127;SDS011;64873;50.102;14.434;2024-02-21T10:44:29;7.68;;;2.40;;
76127;SDS011;64873;50.102;14.434;2024-02-21T10:46:56;13.23;;;3.08;;
76127;SDS011;64873;50.102;14.434;2024-02-21T10:49:23;11.63;;;2.78;;
76127;SDS011;64873;50.102;14.434;2024-02-21T10:52:01;6.47;;;2.30;;
76127;SDS011;64873;50.102;14.434;2024-02-21T10:57:05;7.25;;;2.10;;
76127;SDS011;64873;50.102;14.434;2024-02-21T10:59:32;7.75;;;1.90;;
76127;SDS011;64873;50.102;14.434;2024-02-21T11:02:01;11.13;;;2.60;;
76127;SDS011;64873;50.102;14.434;2024-02-21T11:04:26;12.73;;;2.65;;
76127;SDS011;64873;50.102;14.434;2024-02-21T11:06:53;7.03;;;2.20;;
76127;SDS011;64873;50.102;14.434;2024-02-21T11:09:19;7.18;;;2.45;;
76127;SDS011;64873;50.102;14.434;2024-02-21T11:11:56;8.02;;;1.95;;
76127;SDS011;64873;50.102;14.434;2024-02-21T11:14:25;8.70;;;2.35;;
76127;SDS011;64873;50.102;14.434;2024-02-21T11:16:52;7.20;;;2.50;;
76127;SDS011;64873;50.102;14.434;2024-02-21T11:19:21;11.77;;;2.85;;
76127;SDS011;64873;50.102;14.434;2024-02-21T11:21:51;8.10;;;2.83;;
76127;SDS011;64873;50.102;14.434;2024-02-21T11:24:27;10.48;;;2.35;;
76127;SDS011;64873;50.102;14.434;2024-02-21T11:27:42;6.78;;;2.13;;
76127;SDS011;64873;50.102;14.434;2024-02-21T11:29:49;12.15;;;2.85;;
76127;SDS011;64873;50.102;14.434;2024-02-21T11:32:20;8.73;;;2.95;;
76127;SDS011;64873;50.102;14.434;2024-02-21T11:35:04;4.35;;;2.05;;
76127;SDS011;64873;50.102;14.434;2024-02-21T11:37:31;10.38;;;2.30;;
76127;SDS011;64873;50.102;14.434;2024-02-21T11:40:05;13.95;;;3.25;;
76127;SDS011;64873;50.102;14.434;2024-02-21T11:42:35;9.52;;;2.47;;
76127;SDS011;64873;50.102;14.434;2024-02-21T11:45:00;8.70;;;2.90;;
76127;SDS011;64873;50.102;14.434;2024-02-21T11:47:27;6.45;;;2.00;;
76127;SDS011;64873;50.102;14.434;2024-02-21T11:49:53;15.63;;;2.75;;
76127;SDS011;64873;50.102;14.434;2024-02-21T11:52:21;10.50;;;2.00;;
76127;SDS011;64873;50.102;14.434;2024-02-21T11:54:49;9.25;;;2.35;;
76127;SDS011;64873;50.102;14.434;2024-02-21T11:57:17;8.20;;;2.63;;
76127;SDS011;64873;50.102;14.434;2024-02-21T11:59:44;10.45;;;3.42;;
76127;SDS011;64873;50.102;14.434;2024-02-21T12:02:10;11.80;;;2.80;;
76127;SDS011;64873;50.102;14.434;2024-02-21T12:04:36;6.13;;;1.77;;
76127;SDS011;64873;50.102;14.434;2024-02-21T12:07:02;6.57;;;2.20;;
76127;SDS011;64873;50.102;14.434;2024-02-21T12:09:29;4.03;;;1.88;;
76127;SDS011;64873;50.102;14.434;2024-02-21T12:12:04;5.18;;;2.17;;
76127;SDS011;64873;50.102;14.434;2024-02-21T12:14:31;7.93;;;2.13;;
76127;SDS011;64873;50.102;14.434;2024-02-21T12:16:58;8.10;;;2.30;;
76127;SDS011;64873;50.102;14.434;2024-02-21T12:19:24;10.25;;;2.05;;
76127;SDS011;64873;50.102;14.434;2024-02-21T12:21:50;8.80;;;1.80;;
76127;SDS011;64873;50.102;14.434;2024-02-21T12:24:16;6.95;;;2.13;;
76127;SDS011;64873;50.102;14.434;2024-02-21T12:26:52;6.63;;;2.05;;
76127;SDS011;64873;50.102;14.434;2024-02-21T12:29:19;7.22;;;2.10;;
76127;SDS011;64873;50.102;14.434;2024-02-21T12:31:45;3.97;;;1.50;;
76127;SDS011;64873;50.102;14.434;2024-02-21T12:34:11;6.95;;;1.65;;
76127;SDS011;64873;50.102;14.434;2024-02-21T12:36:43;7.55;;;1.98;;
76127;SDS011;64873;50.102;14.434;2024-02-21T12:39:10;8.27;;;1.92;;
76127;SDS011;64873;50.102;14.434;2024-02-21T12:41:36;8.90;;;1.98;;
76127;SDS011;64873;50.102;14.434;2024-02-21T12:44:06;4.30;;;1.60;;
76127;SDS011;64873;50.102;14.434;2024-02-21T12:46:35;5.68;;;1.67;;
76127;SDS011;64873;50.102;14.434;2024-02-21T12:49:01;4.07;;;1.75;;
76127;SDS011;64873;50.102;14.434;2024-02-21T12:51:28;9.02;;;1.85;;
76127;SDS011;64873;50.102;14.434;2024-02-21T12:53:53;8.77;;;2.50;;
76127;SDS011;64873;50.102;14.434;2024-02-21T12:56:19;7.80;;;1.83;;
76127;SDS011;64873;50.102;14.434;2024-02-21T12:58:45;4.75;;;1.70;;
76127;SDS011;64873;50.102;14.434;2024-02-21T13:01:10;5.65;;;1.80;;
76127;SDS011;64873;50.102;14.434;2024-02-21T13:03:36;5.40;;;1.65;;
76127;SDS011;64873;50.102;14.434;2024-02-21T13:06:03;6.05;;;1.88;;
76127;SDS011;64873;50.102;14.434;2024-02-21T13:08:28;5.78;;;1.60;;
76127;SDS011;64873;50.102;14.434;2024-02-21T13:10:55;7.18;;;1.65;;
76127;SDS011;64873;50.102;14.434;2024-02-21T13:13:20;3.90;;;1.58;;
76127;SDS011;64873;50.102;14.434;2024-02-21T13:15:45;5.50;;;1.65;;
76127;SDS011;64873;50.102;14.434;2024-02-21T13:18:11;6.90;;;1.85;;
76127;SDS011;64873;50.102;14.434;2024-02-21T13:20:36;5.88;;;1.83;;
76127;SDS011;64873;50.102;14.434;2024-02-21T13:23:03;4.50;;;1.73;;
76127;SDS011;64873;50.102;14.434;2024-02-21T13:25:28;3.80;;;1.55;;
76127;SDS011;64873;50.102;14.434;2024-02-21T13:27:54;3.63;;;1.48;;
76127;SDS011;64873;50.102;14.434;2024-02-21T13:30:21;8.18;;;2.05;;
76127;SDS011;64873;50.102;14.434;2024-02-21T13:32:46;5.18;;;1.88;;
76127;SDS011;64873;50.102;14.434;2024-02-21T13:35:12;10.60;;;1.98;;
76127;SDS011;64873;50.102;14.434;2024-02-21T13:37:38;4.75;;;1.77;;
76127;SDS011;64873;50.102;14.434;2024-02-21T13:40:04;7.15;;;1.90;;
76127;SDS011;64873;50.102;14.434;2024-02-21T13:42:31;4.80;;;1.80;;
76127;SDS011;64873;50.102;14.434;2024-02-21T13:44:56;7.65;;;2.13;;
76127;SDS011;64873;50.102;14.434;2024-02-21T13:47:22;5.35;;;1.77;;
76127;SDS011;64873;50.102;14.434;2024-02-21T13:49:47;8.50;;;1.80;;
76127;SDS011;64873;50.102;14.434;2024-02-21T13:52:13;6.10;;;1.80;;
76127;SDS011;64873;50.102;14.434;2024-02-21T13:54:39;8.63;;;2.00;;
76127;SDS011;64873;50.102;14.434;2024-02-21T13:57:04;4.55;;;1.77;;
76127;SDS011;64873;50.102;14.434;2024-02-21T13:59:30;5.47;;;1.83;;
76127;SDS011;64873;50.102;14.434;2024-02-21T14:01:55;6.30;;;2.10;;
76127;SDS011;64873;50.102;14.434;2024-02-21T14:04:21;5.95;;;1.70;;
76127;SDS011;64873;50.102;14.434;2024-02-21T14:06:47;5.45;;;1.80;;
76127;SDS011;64873;50.102;14.434;2024-02-21T14:09:12;8.15;;;2.13;;
76127;SDS011;64873;50.102;14.434;2024-02-21T14:11:38;6.00;;;1.70;;
76127;SDS011;64873;50.102;14.434;2024-02-21T14:14:05;4.22;;;1.42;;
76127;SDS011;64873;50.102;14.434;2024-02-21T14:16:30;7.75;;;1.98;;
76127;SDS011;64873;50.102;14.434;2024-02-21T14:18:56;7.65;;;2.15;;
76127;SDS011;64873;50.102;14.434;2024-02-21T14:21:21;4.00;;;1.50;;
76127;SDS011;64873;50.102;14.434;2024-02-21T14:23:47;5.97;;;1.77;;
76127;SDS011;64873;50.102;14.434;2024-02-21T14:26:13;6.28;;;1.70;;
76127;SDS011;64873;50.102;14.434;2024-02-21T14:28:39;5.78;;;1.70;;
76127;SDS011;64873;50.102;14.434;2024-02-21T14:31:05;8.88;;;2.28;;
76127;SDS011;64873;50.102;14.434;2024-02-21T14:33:34;4.40;;;1.70;;
76127;SDS011;64873;50.102;14.434;2024-02-21T14:36:00;7.40;;;1.98;;